Time;durP1;ratioP1;P1;durP2;ratioP2;P2;SDS_P1;SDS_P2;PMS_P1;PMS_P2;Temp;Humidity;BMP_temperature;BMP_pressure;BME280_temperature;BME280_humidity;BME280_pressure;Samples;Min_cycle;Max_cycle;Signal;HPM_P1;HPM_P2
2022/09/09 00:02:35;;;;;;;11.85;5.92;;;;;;;16.67;52.37;100497.73;1739822;82;21203;-81
2022/09/09 00:06:22;;;;;;;15.23;6.12;;;;;;;16.73;52.18;100506.57;1740112;82;21183;-81
2022/09/09 00:09:31;;;;;;;14.05;6.40;;;;;;;16.88;51.77;100504.13;1739733;82;21190;-81
2022/09/09 00:12:56;;;;;;;17.50;6.03;;;;;;;16.90;52.05;100507.02;1738471;82;21206;-80
2022/09/09 00:16:18;;;;;;;11.78;5.42;;;;;;;16.89;51.99;100499.79;1741362;82;21211;-81
2022/09/09 00:19:42;;;;;;;13.78;5.92;;;;;;;16.87;52.00;100504.66;1742685;82;21741;-81
2022/09/09 00:22:52;;;;;;;17.60;6.05;;;;;;;16.89;52.25;100503.05;1742756;82;21210;-81
2022/09/09 00:26:18;;;;;;;11.40;6.12;;;;;;;16.82;52.51;100509.44;1742819;82;21179;-82
2022/09/09 00:29:43;;;;;;;12.78;6.62;;;;;;;16.74;52.52;100509.64;1740662;82;21265;-81
2022/09/09 00:32:49;;;;;;;12.68;6.40;;;;;;;16.71;52.48;100507.83;1739936;82;21194;-82
2022/09/09 00:36:07;;;;;;;17.73;6.28;;;;;;;16.65;52.53;100510.03;1739834;82;21805;-82
2022/09/09 00:39:16;;;;;;;11.65;6.62;;;;;;;16.61;52.47;100512.39;1710448;84;21210;-82
2022/09/09 00:42:36;;;;;;;12.88;6.70;;;;;;;16.54;52.56;100509.60;1685159;85;21211;-82
2022/09/09 00:46:10;;;;;;;18.67;6.30;;;;;;;16.51;53.12;100505.02;1710443;84;21745;-80
2022/09/09 00:49:46;;;;;;;15.32;6.97;;;;;;;16.49;53.39;100501.10;1738686;82;21136;-81
2022/09/09 00:53:22;;;;;;;11.40;6.10;;;;;;;16.48;53.35;100508.22;1738566;82;21215;-81
2022/09/09 00:56:30;;;;;;;22.32;5.97;;;;;;;16.59;53.20;100511.20;1723729;82;21223;-82
2022/09/09 01:00:04;;;;;;;17.52;6.60;;;;;;;16.61;53.18;100512.39;1692574;84;21225;-81
2022/09/09 01:03:45;;;;;;;14.20;5.85;;;;;;;16.61;53.18;100510.47;1760133;81;21237;-82
2022/09/09 01:06:52;;;;;;;11.90;6.10;;;;;;;16.67;53.08;100507.92;1766925;80;21177;-81
2022/09/09 01:10:10;;;;;;;16.45;5.87;;;;;;;16.60;53.36;100502.38;1787168;80;21217;-81
2022/09/09 01:13:20;;;;;;;14.60;6.08;;;;;;;16.56;53.33;100501.98;1787067;80;21245;-81
2022/09/09 01:16:29;;;;;;;12.00;6.20;;;;;;;16.50;53.66;100499.19;1786953;80;21213;-82
2022/09/09 01:20:13;;;;;;;12.43;5.58;;;;;;;16.47;53.73;100492.20;1790176;79;21157;-81
2022/09/09 01:23:46;;;;;;;16.15;5.80;;;;;;;16.40;53.74;100500.98;1771122;81;21166;-81
2022/09/09 01:26:59;;;;;;;16.70;5.80;;;;;;;16.37;53.70;100501.39;1770686;81;21190;-81
2022/09/09 01:30:05;;;;;;;13.05;5.90;;;;;;;16.32;53.73;100502.02;1757491;81;21208;-81
2022/09/09 01:33:11;;;;;;;13.65;5.80;;;;;;;16.28;53.60;100497.16;1771056;81;21196;-82
2022/09/09 01:36:29;;;;;;;11.12;5.85;;;;;;;16.24;53.57;100500.01;1769647;80;21186;-82
2022/09/09 01:39:35;;;;;;;8.33;4.85;;;;;;;16.19;53.69;100500.63;1771049;81;21193;-82
2022/09/09 01:42:41;;;;;;;16.57;4.95;;;;;;;16.05;53.92;100508.02;1771217;81;21169;-81
2022/09/09 01:45:47;;;;;;;12.68;4.97;;;;;;;15.96;53.80;100507.88;1771135;81;21181;-82
2022/09/09 01:48:54;;;;;;;12.18;5.65;;;;;;;15.93;53.83;100519.84;1756441;79;21217;-82
2022/09/09 01:52:03;;;;;;;9.50;5.58;;;;;;;15.79;54.14;100525.83;1801385;79;21735;-82
2022/09/09 01:55:10;;;;;;;11.10;5.85;;;;;;;15.78;54.30;100521.38;1803122;79;21181;-82
2022/09/09 01:58:44;;;;;;;13.90;6.25;;;;;;;15.65;55.08;100521.31;1801813;79;21220;-82
2022/09/09 02:02:13;;;;;;;15.70;6.15;;;;;;;15.59;55.81;100522.95;1735015;79;21268;-80
2022/09/09 02:05:45;;;;;;;10.55;5.47;;;;;;;15.57;55.79;100520.41;1731722;81;21298;-81
2022/09/09 02:08:56;;;;;;;18.57;6.65;;;;;;;15.62;56.16;100528.57;1740966;82;21244;-82
2022/09/09 02:12:20;;;;;;;15.30;6.67;;;;;;;15.73;56.18;100524.75;1742021;82;21180;-81
2022/09/09 02:15:45;;;;;;;14.20;6.47;;;;;;;15.80;56.02;100523.39;1771029;81;21882;-81
2022/09/09 02:18:59;;;;;;;15.15;6.40;;;;;;;15.85;55.92;100529.14;1775496;81;21883;-81
2022/09/09 02:22:07;;;;;;;14.93;6.67;;;;;;;15.85;56.16;100529.14;1767602;81;21180;-81
2022/09/09 02:25:16;;;;;;;12.10;6.60;;;;;;;15.82;56.83;100531.80;1770363;81;21229;-82
2022/09/09 02:28:23;;;;;;;17.35;6.35;;;;;;;15.76;57.63;100531.75;1763323;81;21780;-81
2022/09/09 02:31:30;;;;;;;12.58;7.12;;;;;;;15.76;57.37;100526.23;1768402;81;21747;-82
2022/09/09 02:34:39;;;;;;;15.90;7.03;;;;;;;15.71;57.53;100532.89;1775123;81;21236;-81
2022/09/09 02:37:47;;;;;;;14.47;7.15;;;;;;;15.67;58.02;100544.03;1776287;81;21220;-81
2022/09/09 02:40:53;;;;;;;15.32;6.17;;;;;;;15.61;57.91;100545.64;1776578;81;21212;-80
2022/09/09 02:43:58;;;;;;;12.55;6.37;;;;;;;15.61;57.56;100549.78;1776434;81;21176;-81
2022/09/09 02:47:15;;;;;;;14.90;6.92;;;;;;;15.57;56.99;100546.60;1776561;81;21220;-81
2022/09/09 02:50:28;;;;;;;14.50;6.95;;;;;;;15.51;56.87;100554.28;1776190;81;21224;-81
2022/09/09 02:53:38;;;;;;;11.33;6.42;;;;;;;15.41;57.32;100559.31;1776605;81;21229;-81
2022/09/09 02:56:50;;;;;;;14.20;6.20;;;;;;;15.40;56.80;100560.38;1775193;81;21181;-80
2022/09/09 02:59:58;;;;;;;11.73;6.42;;;;;;;15.37;56.62;100563.52;1775119;81;21217;-80
2022/09/09 03:03:04;;;;;;;13.55;6.45;;;;;;;15.22;56.76;100572.42;1798843;79;21210;-81
2022/09/09 03:06:12;;;;;;;13.38;6.87;;;;;;;15.15;56.30;100572.39;1802646;79;21177;-81
2022/09/09 03:09:20;;;;;;;14.20;6.83;;;;;;;15.09;55.83;100573.16;1801414;79;21169;-81
2022/09/09 03:12:26;;;;;;;12.60;6.53;;;;;;;14.95;56.12;100578.23;1802634;79;21731;-81
2022/09/09 03:15:32;;;;;;;15.20;6.28;;;;;;;15.01;56.34;100576.09;1802295;79;21247;-81
2022/09/09 03:18:39;;;;;;;12.45;7.37;;;;;;;14.88;57.23;100576.81;1801134;79;21233;-81
2022/09/09 03:21:45;;;;;;;10.50;6.90;;;;;;;14.97;57.24;100571.49;1801254;79;21197;-81
2022/09/09 03:24:54;;;;;;;14.95;6.75;;;;;;;15.03;57.03;100576.20;1802643;79;21185;-81
2022/09/09 03:28:00;;;;;;;15.03;6.60;;;;;;;14.98;57.31;100577.32;1801122;79;21232;-81
2022/09/09 03:31:00;;;;;;;14.70;6.65;;;;;;;14.99;57.37;100587.28;1802169;79;21209;-81
2022/09/09 03:34:06;;;;;;;16.27;6.15;;;;;;;14.94;57.30;100590.31;1785441;79;21197;-81
2022/09/09 03:37:11;;;;;;;10.58;5.80;;;;;;;14.84;56.92;100594.78;1802731;79;21236;-81
2022/09/09 03:40:19;;;;;;;11.88;6.47;;;;;;;14.77;56.51;100593.84;1801497;79;21248;-81
2022/09/09 03:43:19;;;;;;;;;;;;;;;14.93;56.50;100592.22;1803819;79;21169;-80
2022/09/09 03:46:29;;;;;;;14.95;6.40;;;;;;;14.98;57.04;100596.60;1802003;79;20216;-81
2022/09/09 03:49:36;;;;;;;24.52;6.90;;;;;;;15.00;57.55;100593.11;1801996;79;21196;-81
2022/09/09 03:52:48;;;;;;;44.73;7.40;;;;;;;15.11;57.52;100586.23;1802934;79;21811;-81
2022/09/09 03:55:59;;;;;;;44.00;7.83;;;;;;;15.15;57.69;100583.41;1802784;79;21173;-81
2022/09/09 03:59:05;;;;;;;45.45;7.65;;;;;;;15.26;57.64;100583.38;1802589;79;21233;-81
2022/09/09 04:02:11;;;;;;;33.38;7.55;;;;;;;15.36;57.64;100588.01;1801319;79;21225;-81
2022/09/09 04:05:18;;;;;;;29.98;8.65;;;;;;;15.46;57.64;100582.98;1811404;79;21188;-81
2022/09/09 04:08:25;;;;;;;59.53;8.83;;;;;;;15.54;57.72;100573.72;1811124;79;21478;-81
2022/09/09 04:11:32;;;;;;;29.12;8.38;;;;;;;15.71;57.76;100575.64;1810864;79;21176;-81
2022/09/09 04:14:32;;;;;;;22.50;7.40;;;;;;;15.94;57.50;100579.47;1811300;79;21169;-81
2022/09/09 04:17:39;;;;;;;38.28;7.75;;;;;;;16.07;57.60;100583.14;1810871;79;21201;-81
2022/09/09 04:20:45;;;;;;;31.80;7.03;;;;;;;16.20;57.77;100582.89;1809885;79;21209;-81
2022/09/09 04:23:51;;;;;;;26.25;7.78;;;;;;;16.28;57.89;100589.62;1811432;79;21339;-81
2022/09/09 04:26:57;;;;;;;25.00;8.10;;;;;;;16.48;57.46;100595.20;1811362;79;21248;-82
2022/09/09 04:30:03;;;;;;;18.25;8.33;;;;;;;16.63;57.73;100591.72;1810326;79;21739;-81
2022/09/09 04:33:09;;;;;;;19.98;7.62;;;;;;;16.95;57.42;100601.16;1809673;79;21930;-81
2022/09/09 04:36:15;;;;;;;28.92;7.90;;;;;;;17.16;57.11;100598.71;1811277;79;21165;-82
2022/09/09 04:39:23;;;;;;;27.25;8.33;;;;;;;17.28;56.99;100598.94;1810984;79;21209;-81
2022/09/09 04:42:29;;;;;;;28.35;8.28;;;;;;;17.45;56.74;100596.03;1811291;79;21185;-81
2022/09/09 04:45:37;;;;;;;21.93;6.85;;;;;;;17.62;56.44;100591.77;1811228;79;21223;-81
2022/09/09 04:48:46;;;;;;;29.27;8.67;;;;;;;17.70;56.77;100590.70;1811577;79;21176;-81
2022/09/09 04:51:54;;;;;;;22.52;7.95;;;;;;;18.02;56.41;100591.70;1811158;79;21763;-81
2022/09/09 04:55:00;;;;;;;24.67;8.50;;;;;;;18.23;56.17;100589.70;1787099;79;21180;-81
2022/09/09 04:58:13;;;;;;;21.35;8.23;;;;;;;18.28;56.06;100583.81;1811215;79;21715;-81
2022/09/09 05:01:28;;;;;;;18.52;6.97;;;;;;;18.40;55.81;100583.98;1793071;79;21161;-81
2022/09/09 05:04:36;;;;;;;18.45;7.50;;;;;;;18.67;54.99;100579.11;1777111;79;21176;-81
2022/09/09 05:07:41;;;;;;;19.75;7.83;;;;;;;18.91;55.10;100583.02;1781685;79;21198;-81
2022/09/09 05:10:50;;;;;;;22.07;7.05;;;;;;;19.13;54.42;100591.82;1777520;78;21188;-81
2022/09/09 05:13:58;;;;;;;16.25;6.67;;;;;;;19.33;53.84;100588.33;1724852;81;21242;-81
2022/09/09 05:17:04;;;;;;;14.00;5.97;;;;;;;19.52;52.79;100585.06;1774841;79;21251;-82
2022/09/09 05:20:10;;;;;;;11.65;5.78;;;;;;;19.66;52.01;100584.42;1776082;79;21161;-82
2022/09/09 05:23:18;;;;;;;17.23;6.70;;;;;;;19.86;50.50;100586.47;1781371;79;21795;-83
2022/09/09 05:26:20;;;;;;;14.60;6.00;;;;;;;20.08;50.00;100584.05;1775867;78;21182;-81
2022/09/09 05:29:12;;;;;;;11.43;5.78;;;;;;;20.21;49.30;100579.42;1782759;79;21184;-80
2022/09/09 05:32:19;;;;;;;16.97;5.70;;;;;;;20.29;48.73;100576.34;1788563;78;21231;-82
2022/09/09 05:35:25;;;;;;;13.60;5.83;;;;;;;20.43;48.14;100574.53;1776090;79;21197;-82
2022/09/09 05:38:32;;;;;;;10.23;4.53;;;;;;;20.56;47.45;100579.09;1775487;79;21165;-82
2022/09/09 05:41:38;;;;;;;16.70;4.42;;;;;;;20.68;47.32;100579.13;1786356;79;21351;-83
2022/09/09 05:44:41;;;;;;;5.67;3.52;;;;;;;20.83;46.62;100587.02;1777872;79;21177;-83
2022/09/09 05:47:37;;;;;;;7.08;4.12;;;;;;;21.00;46.01;100583.03;1750820;81;21185;-83
2022/09/09 05:50:25;;;;;;;11.55;4.62;;;;;;;21.15;45.77;100591.77;1777606;79;21207;-82
2022/09/09 05:53:17;;;;;;;10.20;4.72;;;;;;;21.29;45.58;100587.67;1786666;79;21302;-80
2022/09/09 05:56:14;;;;;;;8.55;4.35;;;;;;;21.43;45.45;100595.28;1785370;79;21186;-83
2022/09/09 05:59:05;;;;;;;8.75;3.85;;;;;;;21.59;45.00;100593.15;1785710;79;22262;-81
2022/09/09 06:02:12;;;;;;;10.00;3.87;;;;;;;21.80;44.82;100590.31;1779817;79;21202;-82
2022/09/09 06:05:22;;;;;;;13.98;3.60;;;;;;;21.95;44.67;100595.38;1777837;79;21197;-82
2022/09/09 06:08:27;;;;;;;8.60;4.07;;;;;;;22.12;44.31;100594.96;1789430;79;22364;-82
2022/09/09 06:11:36;;;;;;;10.20;4.85;;;;;;;22.32;43.85;100602.05;1793952;79;21893;-81
2022/09/09 06:14:43;;;;;;;10.43;4.60;;;;;;;22.38;43.88;100603.84;1800133;79;21200;-81
2022/09/09 06:17:51;;;;;;;8.55;4.00;;;;;;;22.63;43.58;100612.73;1803833;79;21179;-82
2022/09/09 06:21:09;;;;;;;12.60;3.72;;;;;;;22.71;43.02;100615.11;1804439;79;21216;-81
2022/09/09 06:24:39;;;;;;;9.05;4.15;;;;;;;22.75;43.10;100616.02;1738880;82;21248;-81
2022/09/09 06:27:47;;;;;;;6.30;3.35;;;;;;;22.97;43.17;100614.24;1753334;80;21763;-82
2022/09/09 06:30:55;;;;;;;5.70;3.20;;;;;;;23.05;42.68;100619.39;1753121;80;21256;-82
2022/09/09 06:34:06;;;;;;;5.55;3.20;;;;;;;23.13;42.13;100619.54;1756545;79;21165;-84
2022/09/09 06:37:16;;;;;;;5.40;3.40;;;;;;;23.16;42.44;100622.68;1766365;79;21185;-83
2022/09/09 06:40:24;;;;;;;7.72;2.92;;;;;;;23.07;42.49;100624.19;1760454;79;21137;-82
2022/09/09 06:43:34;;;;;;;16.62;3.85;;;;;;;23.13;42.05;100625.96;1765625;79;21169;-83
2022/09/09 06:46:40;;;;;;;10.08;3.85;;;;;;;23.37;41.55;100634.19;1757626;80;21129;-83
2022/09/09 06:49:45;;;;;;;10.88;3.80;;;;;;;23.47;41.31;100631.56;1755663;80;21156;-83
2022/09/09 06:52:54;;;;;;;5.55;3.47;;;;;;;23.70;40.97;100639.79;1736856;80;21194;-83
2022/09/09 06:56:01;;;;;;;4.97;3.40;;;;;;;23.82;40.65;100641.66;1753426;80;21477;-82
2022/09/09 06:59:11;;;;;;;7.55;3.30;;;;;;;23.91;40.69;100637.33;1738049;80;21166;-83
2022/09/09 07:02:19;;;;;;;6.30;3.47;;;;;;;23.84;40.38;100637.49;1726881;82;22579;-84
2022/09/09 07:05:25;;;;;;;8.88;3.47;;;;;;;24.14;40.40;100637.11;1722483;82;21193;-82
2022/09/09 07:08:33;;;;;;;10.25;3.42;;;;;;;24.26;40.12;100638.92;1713736;82;21205;-82
2022/09/09 07:11:43;;;;;;;5.25;3.22;;;;;;;24.26;39.98;100637.53;1758869;79;21208;-82
2022/09/09 07:14:50;;;;;;;8.50;3.50;;;;;;;24.35;39.44;100643.80;1745704;80;21204;-83
2022/09/09 07:17:56;;;;;;;10.98;3.95;;;;;;;24.40;39.41;100643.06;1757902;81;21272;-84
2022/09/09 07:21:08;;;;;;;5.80;3.50;;;;;;;24.37;39.24;100642.17;1744590;80;21225;-81
2022/09/09 07:24:16;;;;;;;7.83;3.72;;;;;;;24.57;38.80;100649.44;1754797;80;21165;-83
2022/09/09 07:27:22;;;;;;;5.00;3.17;;;;;;;24.53;38.56;100648.27;1754271;81;22248;-83
2022/09/09 07:30:34;;;;;;;11.22;4.00;;;;;;;24.59;38.42;100652.80;1733887;81;21266;-82
2022/09/09 07:33:47;;;;;;;9.93;3.33;;;;;;;24.80;38.32;100651.67;1732178;79;21318;-82
2022/09/09 07:36:49;;;;;;;5.70;3.30;;;;;;;24.85;37.83;100644.17;1706200;81;21193;-82
2022/09/09 07:39:43;;;;;;;7.55;3.85;;;;;;;24.82;37.67;100648.88;1732488;81;21184;-82
2022/09/09 07:42:29;;;;;;;7.58;3.20;;;;;;;24.80;37.62;100646.08;1732043;81;21192;-82
2022/09/09 07:45:35;;;;;;;6.47;3.45;;;;;;;24.64;38.32;100647.27;1735558;81;21235;-82
2022/09/09 07:48:41;;;;;;;6.28;3.35;;;;;;;24.74;38.95;100643.19;1747949;81;21184;-81
2022/09/09 07:51:53;;;;;;;10.35;3.87;;;;;;;24.86;38.63;100642.22;1718341;82;21210;-81
2022/09/09 07:55:06;;;;;;;6.97;3.35;;;;;;;25.08;37.99;100648.65;1732919;81;21301;-82
2022/09/09 07:58:09;;;;;;;7.35;3.22;;;;;;;25.13;37.25;100640.30;1735244;82;21223;-82
2022/09/09 08:01:19;;;;;;;11.03;3.12;;;;;;;25.11;36.91;100651.45;1728217;81;21244;-80
2022/09/09 08:04:21;;;;;;;8.18;3.40;;;;;;;25.01;37.22;100652.16;1741157;82;21229;-81
2022/09/09 08:07:28;;;;;;;7.10;3.25;;;;;;;24.99;36.90;100649.64;1737068;81;21191;-81
2022/09/09 08:10:35;;;;;;;10.13;2.87;;;;;;;24.99;37.09;100656.64;1719844;81;21293;-82
2022/09/09 08:13:42;;;;;;;5.37;3.25;;;;;;;24.85;37.08;100652.56;1736885;81;21295;-83
2022/09/09 08:16:57;;;;;;;5.70;3.65;;;;;;;24.81;36.55;100646.36;1719241;82;21196;-82
2022/09/09 08:20:05;;;;;;;8.18;4.17;;;;;;;24.91;36.02;100648.70;1719237;82;21749;-81
2022/09/09 08:23:11;;;;;;;5.72;3.17;;;;;;;25.04;35.34;100627.86;1711174;81;21249;-81
2022/09/09 08:26:24;;;;;;;13.13;4.05;;;;;;;25.38;35.38;100633.25;1699681;84;21193;-82
2022/09/09 08:29:30;;;;;;;11.25;4.20;;;;;;;25.45;34.69;100631.05;1730366;82;21218;-81
2022/09/09 08:32:35;;;;;;;8.95;4.12;;;;;;;25.65;34.68;100622.83;1729283;82;21249;-82
2022/09/09 08:35:43;;;;;;;16.65;4.53;;;;;;;25.84;34.53;100623.84;1727631;82;21228;-82
2022/09/09 08:38:51;;;;;;;6.90;4.00;;;;;;;25.62;33.75;100617.76;1731226;82;21813;-81
2022/09/09 08:42:46;;;;;;;9.63;4.00;;;;;;;25.77;34.29;100612.84;1723422;81;22249;-82
2022/09/09 08:46:25;;;;;;;7.55;3.70;;;;;;;25.76;34.64;100611.16;1709300;81;21165;-80
2022/09/09 08:49:57;;;;;;;10.58;4.00;;;;;;;25.79;34.49;100615.40;1696707;83;21815;-83
2022/09/09 08:53:16;;;;;;;11.20;4.22;;;;;;;25.82;34.56;100600.83;1733218;82;21331;-81
2022/09/09 08:56:27;;;;;;;12.53;4.50;;;;;;;25.81;34.77;100607.55;1730836;82;22501;-83
2022/09/09 08:59:39;;;;;;;13.78;4.28;;;;;;;25.93;34.59;100605.41;1730325;82;21208;-81
2022/09/09 09:03:22;;;;;;;10.60;3.70;;;;;;;25.66;34.93;100601.27;1731993;82;21217;-81
2022/09/09 09:07:01;;;;;;;5.90;3.83;;;;;;;25.72;34.47;100608.02;1709362;82;21212;-82
2022/09/09 09:10:30;;;;;;;9.30;4.22;;;;;;;25.58;34.08;100602.59;1732546;82;21204;-83
2022/09/09 09:13:49;;;;;;;;;;;;;;;25.61;34.03;100608.23;1730753;82;21178;-82
2022/09/09 09:17:09;;;;;;;11.63;4.17;;;;;;;25.51;33.76;100616.56;1727410;82;20630;-82
2022/09/09 09:20:22;;;;;;;11.20;4.28;;;;;;;25.51;33.72;100610.96;1730169;82;21217;-83
2022/09/09 09:23:32;;;;;;;5.75;3.83;;;;;;;25.45;33.88;100614.25;1731315;82;21173;-83
2022/09/09 09:26:41;;;;;;;11.38;4.60;;;;;;;25.28;34.07;100614.96;1734950;82;21249;-84
2022/09/09 09:29:53;;;;;;;8.45;4.20;;;;;;;25.13;33.94;100613.72;1733743;82;22200;-81
2022/09/09 09:33:07;;;;;;;16.73;5.05;;;;;;;25.21;33.80;100614.61;1732709;82;21174;-81
2022/09/09 09:36:15;;;;;;;11.07;4.50;;;;;;;25.23;34.07;100612.41;1734280;80;21177;-80
2022/09/09 09:39:39;;;;;;;12.70;4.33;;;;;;;25.70;32.93;100613.06;1715423;82;21207;-82
2022/09/09 09:43:09;;;;;;;11.18;4.45;;;;;;;25.66;32.98;100618.07;1734383;80;21232;-83
2022/09/09 09:46:23;;;;;;;10.20;4.30;;;;;;;25.60;32.77;100621.39;1743984;81;21197;-82
2022/09/09 09:49:29;;;;;;;11.00;4.20;;;;;;;25.74;32.48;100614.22;1726215;81;22014;-82
2022/09/09 09:52:36;;;;;;;7.37;4.05;;;;;;;25.80;32.08;100615.12;1720413;83;21200;-83
2022/09/09 09:55:41;;;;;;;11.20;4.45;;;;;;;25.90;32.16;100605.94;1725521;82;21236;-82
2022/09/09 09:58:58;;;;;;;8.40;3.98;;;;;;;26.12;31.68;100608.03;1725546;82;22197;-83
2022/09/09 10:02:29;;;;;;;11.53;3.90;;;;;;;26.36;32.12;100603.37;1726108;82;21223;-83
2022/09/09 10:05:38;;;;;;;6.78;3.58;;;;;;;26.63;31.04;100603.20;1733571;82;22250;-84
2022/09/09 10:08:49;;;;;;;5.78;3.52;;;;;;;26.75;30.54;100596.80;1741591;81;21213;-84
2022/09/09 10:12:14;;;;;;;24.67;4.70;;;;;;;26.72;30.30;100599.61;1784877;79;21555;-83
2022/09/09 10:15:30;;;;;;;12.03;4.12;;;;;;;26.65;30.42;100611.64;1783287;79;21161;-83
2022/09/09 10:18:48;;;;;;;11.50;3.80;;;;;;;26.59;30.03;100613.31;1783200;79;21770;-83
2022/09/09 10:22:09;;;;;;;7.62;4.15;;;;;;;26.79;29.84;100613.92;1783324;79;21781;-82
2022/09/09 10:25:33;;;;;;;10.55;4.40;;;;;;;26.65;30.18;100610.23;1777357;79;21198;-82
2022/09/09 10:29:00;;;;;;;11.93;4.20;;;;;;;26.72;29.93;100604.35;1778784;79;21248;-83
2022/09/09 10:32:53;;;;;;;8.43;3.45;;;;;;;26.83;30.26;100612.26;1750696;79;21240;-82
2022/09/09 10:36:11;;;;;;;10.18;4.10;;;;;;;26.75;29.72;100610.27;1780017;79;21822;-82
2022/09/09 10:39:40;;;;;;;6.83;3.52;;;;;;;26.92;29.59;100603.58;1728785;81;21269;-82
2022/09/09 10:42:46;;;;;;;10.35;4.33;;;;;;;27.01;29.70;100605.56;1775910;79;21181;-81
2022/09/09 10:46:05;;;;;;;16.02;4.37;;;;;;;26.96;29.63;100597.13;1787545;79;21225;-82
2022/09/09 10:49:23;;;;;;;9.58;4.17;;;;;;;26.99;29.58;100606.95;1782610;79;21135;-82
2022/09/09 10:52:59;;;;;;;8.93;3.67;;;;;;;26.98;29.59;100606.66;1795233;78;21185;-82
2022/09/09 10:56:08;;;;;;;8.73;3.95;;;;;;;26.86;29.65;100605.50;1741769;80;21798;-81
2022/09/09 10:59:17;;;;;;;7.58;4.25;;;;;;;27.07;29.84;100595.73;1788941;79;21323;-81
2022/09/09 11:02:22;;;;;;;10.88;3.60;;;;;;;27.12;29.25;100591.00;1726557;81;21732;-82
2022/09/09 11:05:33;;;;;;;9.85;4.37;;;;;;;27.05;28.99;100593.19;1778727;79;21752;-81
2022/09/09 11:08:28;;;;;;;4.80;3.20;;;;;;;27.17;28.74;100595.20;1726978;81;21205;-82
2022/09/09 11:11:39;;;;;;;6.33;3.37;;;;;;;26.94;28.72;100604.97;1777083;79;21173;-80
2022/09/09 11:15:11;;;;;;;10.70;4.05;;;;;;;26.80;28.83;100602.98;1778845;80;21192;-81
2022/09/09 11:18:29;;;;;;;11.53;4.35;;;;;;;26.69;28.97;100604.92;1778151;80;21244;-83
2022/09/09 11:21:41;;;;;;;11.35;3.27;;;;;;;26.70;28.87;100599.59;1782234;79;21219;-82
2022/09/09 11:24:54;;;;;;;6.85;3.37;;;;;;;26.73;29.19;100595.68;1778008;80;21205;-82
2022/09/09 11:28:29;;;;;;;15.88;3.80;;;;;;;26.78;29.14;100599.63;1713700;82;21173;-83
2022/09/09 11:31:47;;;;;;;8.75;3.65;;;;;;;26.61;28.95;100590.86;1709523;83;21777;-82
2022/09/09 11:35:01;;;;;;;9.78;3.80;;;;;;;26.31;29.38;100594.95;1708815;83;21260;-82
2022/09/09 11:38:32;;;;;;;8.50;4.28;;;;;;;26.10;29.50;100586.42;1727855;82;21343;-81
2022/09/09 11:41:45;;;;;;;8.63;3.92;;;;;;;26.10;29.92;100589.22;1732862;81;21200;-81
2022/09/09 11:44:54;;;;;;;9.83;3.75;;;;;;;26.01;29.69;100586.65;1717208;81;21239;-82
2022/09/09 11:48:02;;;;;;;12.00;4.05;;;;;;;26.13;29.48;100576.08;1708381;82;21224;-83
2022/09/09 11:51:17;;;;;;;9.83;3.67;;;;;;;26.02;29.74;100581.36;1716516;83;21245;-81
2022/09/09 11:54:41;;;;;;;13.03;4.33;;;;;;;25.83;29.98;100582.90;1716794;82;21221;-82
2022/09/09 11:57:47;;;;;;;10.63;4.03;;;;;;;25.79;30.20;100571.41;1710739;82;21252;-82
2022/09/09 12:00:54;;;;;;;18.23;4.58;;;;;;;25.73;30.01;100571.05;1714558;82;21221;-82
2022/09/09 12:04:19;;;;;;;10.28;4.12;;;;;;;25.79;29.75;100573.38;1719566;83;21236;-82
2022/09/09 12:07:44;;;;;;;12.65;3.58;;;;;;;25.88;29.73;100572.59;1732139;82;21363;-83
2022/09/09 12:10:55;;;;;;;13.43;4.08;;;;;;;25.95;29.92;100575.14;1712143;82;21193;-83
2022/09/09 12:14:03;;;;;;;7.03;3.80;;;;;;;25.98;29.74;100578.25;1703687;83;21835;-83
2022/09/09 12:17:30;;;;;;;14.15;4.00;;;;;;;25.99;29.48;100573.48;1707278;83;21212;-82
2022/09/09 12:20:46;;;;;;;24.65;4.20;;;;;;;26.17;29.14;100574.41;1699657;84;21244;-83
2022/09/09 12:24:02;;;;;;;14.98;6.17;;;;;;;26.22;29.11;100571.63;1699983;83;21247;-80
2022/09/09 12:27:32;;;;;;;15.18;7.28;;;;;;;26.15;28.91;100573.83;1721236;81;21213;-82
2022/09/09 12:30:47;;;;;;;7.50;4.10;;;;;;;26.15;28.68;100566.81;1707333;83;21292;-82
2022/09/09 12:33:53;;;;;;;15.95;4.10;;;;;;;26.17;29.21;100564.60;1702853;83;21804;-82
2022/09/09 12:37:03;;;;;;;9.50;4.20;;;;;;;26.15;29.33;100561.21;1701527;83;21183;-83
2022/09/09 12:40:12;;;;;;;10.58;4.03;;;;;;;26.10;28.63;100559.80;1666922;83;21706;-83
2022/09/09 12:43:29;;;;;;;9.70;4.50;;;;;;;26.21;28.74;100565.75;1708194;83;21188;-83
2022/09/09 12:46:45;;;;;;;14.33;4.65;;;;;;;26.17;28.93;100571.61;1692737;83;21197;-82
2022/09/09 12:49:51;;;;;;;5.40;3.17;;;;;;;25.82;29.64;100576.45;1705523;83;21208;-82
2022/09/09 12:52:58;;;;;;;8.03;3.75;;;;;;;25.83;29.82;100571.16;1708029;83;21741;-81
2022/09/09 12:56:16;;;;;;;7.05;3.47;;;;;;;26.07;29.53;100577.73;1709543;83;21840;-81
2022/09/09 12:59:33;;;;;;;7.30;3.30;;;;;;;26.03;29.21;100569.02;1693293;83;21228;-81
2022/09/09 13:02:40;;;;;;;15.30;3.77;;;;;;;26.07;29.40;100576.34;1701954;83;21197;-81
2022/09/09 13:05:46;;;;;;;9.78;3.75;;;;;;;25.97;29.24;100575.70;1692248;83;21621;-81
2022/09/09 13:08:51;;;;;;;8.95;3.60;;;;;;;25.79;29.25;100577.58;1683828;85;21213;-82
2022/09/09 13:12:00;;;;;;;6.65;3.70;;;;;;;25.67;29.44;100580.53;1701170;83;21277;-82
2022/09/09 13:15:07;;;;;;;9.00;3.75;;;;;;;25.82;29.25;100582.06;1724071;82;21204;-82
2022/09/09 13:18:17;;;;;;;6.12;3.15;;;;;;;25.74;29.25;100583.40;1725928;82;21224;-81
2022/09/09 13:21:22;;;;;;;12.43;4.00;;;;;;;25.77;29.29;100583.99;1772221;79;21208;-81
2022/09/09 13:24:42;;;;;;;12.37;4.05;;;;;;;25.82;29.26;100582.62;1777054;78;21408;-81
2022/09/09 13:27:52;;;;;;;10.95;3.60;;;;;;;25.71;29.42;100581.12;1796142;79;21208;-81
2022/09/09 13:31:15;;;;;;;8.68;3.95;;;;;;;25.62;29.82;100575.74;1778389;79;21188;-82
2022/09/09 13:34:35;;;;;;;7.00;3.35;;;;;;;25.56;30.07;100589.43;1788349;79;21546;-82
2022/09/09 13:37:46;;;;;;;8.78;3.70;;;;;;;25.38;30.50;100591.25;1729516;81;21523;-82
2022/09/09 13:41:07;;;;;;;11.57;4.10;;;;;;;25.51;30.40;100599.76;1780732;79;21197;-81
2022/09/09 13:44:13;;;;;;;5.72;3.22;;;;;;;25.51;30.06;100603.40;1719252;82;21201;-82
2022/09/09 13:47:26;;;;;;;7.37;3.45;;;;;;;25.53;29.89;100596.13;1772174;79;22026;-82
2022/09/09 13:50:36;;;;;;;9.65;4.20;;;;;;;25.54;29.88;100603.40;1769335;81;21241;-82
2022/09/09 13:53:41;;;;;;;8.10;3.80;;;;;;;25.53;29.89;100601.16;1768551;81;21344;-82
2022/09/09 13:56:49;;;;;;;9.08;3.52;;;;;;;25.52;29.97;100598.08;1768576;81;21218;-81
2022/09/09 13:59:55;;;;;;;12.03;3.83;;;;;;;25.52;30.18;100598.08;1769268;81;21516;-81
2022/09/09 14:03:03;;;;;;;11.43;3.85;;;;;;;25.55;30.08;100590.55;1769415;81;21166;-81
2022/09/09 14:06:07;;;;;;;8.90;3.72;;;;;;;25.54;30.37;100593.04;1769326;81;21628;-82
2022/09/09 14:09:06;;;;;;;13.93;3.47;;;;;;;25.38;30.49;100605.25;1769436;81;21226;-82
2022/09/09 14:12:11;;;;;;;7.10;3.65;;;;;;;25.34;30.62;100602.69;1768605;81;21808;-81
2022/09/09 14:15:19;;;;;;;10.00;3.95;;;;;;;25.40;30.27;100612.25;1766586;81;21567;-82
2022/09/09 14:18:25;;;;;;;13.43;4.00;;;;;;;25.22;30.43;100601.48;1767286;81;21207;-82
2022/09/09 14:21:32;;;;;;;12.18;4.20;;;;;;;25.20;30.50;100597.53;1769085;81;21163;-81
2022/09/09 14:24:37;;;;;;;6.05;4.03;;;;;;;25.11;30.71;100604.72;1769333;81;21199;-82
2022/09/09 14:27:43;;;;;;;6.33;3.65;;;;;;;25.05;30.46;100615.55;1768801;81;21282;-82
2022/09/09 14:30:48;;;;;;;7.20;3.77;;;;;;;24.88;30.66;100613.41;1767657;81;21190;-82
2022/09/09 14:33:54;;;;;;;10.58;3.42;;;;;;;24.89;30.58;100610.89;1768606;81;21733;-82
2022/09/09 14:37:01;;;;;;;6.65;3.67;;;;;;;24.94;30.55;100616.58;1778803;79;21589;-82
2022/09/09 14:40:00;;;;;;;11.22;4.22;;;;;;;24.82;30.67;100618.67;1780518;79;21244;-82
2022/09/09 14:43:07;;;;;;;6.28;3.75;;;;;;;24.84;30.53;100617.84;1800525;79;21641;-82
2022/09/09 14:46:18;;;;;;;8.75;3.62;;;;;;;24.91;30.37;100617.09;1714291;82;21201;-82